Time;durP1;ratioP1;P1;durP2;ratioP2;P2;SDS_P1;SDS_P2;PMS_P1;PMS_P2;Temp;Humidity;BMP_temperature;BMP_pressure;BME280_temperature;BME280_humidity;BME280_pressure;Samples;Min_cycle;Max_cycle;Signal;HPM_P1;HPM_P2
2022/05/11 00:02:28;;;;;;;;;3.50;1.75;;;;;30.46;100.00;101036.31;5011832;28;51022;-48
2022/05/11 00:05:13;;;;;;;;;2.75;1.75;;;;;30.45;100.00;101027.22;5016623;28;51157;-48
2022/05/11 00:07:58;;;;;;;;;4.50;2.00;;;;;30.47;100.00;101020.72;5003848;28;51302;-48
2022/05/11 00:10:43;;;;;;;;;5.75;3.25;;;;;30.45;100.00;101020.84;5006643;28;51170;-49
2022/05/11 00:13:28;;;;;;;;;3.50;3.25;;;;;30.45;100.00;101021.72;5008359;28;51182;-47
2022/05/11 00:16:13;;;;;;;;;3.75;2.00;;;;;30.45;100.00;101016.25;5017743;28;51084;-48
2022/05/11 00:18:58;;;;;;;;;4.75;4.25;;;;;30.43;100.00;101010.00;5005864;28;51135;-49
2022/05/11 00:21:42;;;;;;;;;5.00;3.25;;;;;30.45;100.00;101009.84;5007705;28;51139;-51
2022/05/11 00:24:27;;;;;;;;;6.00;3.25;;;;;30.45;100.00;101008.00;5018107;28;51078;-48
2022/05/11 00:27:11;;;;;;;;;7.50;3.00;;;;;30.47;100.00;101005.13;5006455;28;51183;-53
2022/05/11 00:29:56;;;;;;;;;6.25;1.75;;;;;30.45;100.00;100997.03;5018896;28;51091;-51
2022/05/11 00:32:40;;;;;;;;;5.50;4.25;;;;;30.39;100.00;100983.78;5009900;28;51122;-49
2022/05/11 00:35:27;;;;;;;;;3.50;2.50;;;;;30.45;100.00;100994.28;5018435;28;51233;-49
2022/05/11 00:38:12;;;;;;;;;5.00;3.50;;;;;30.44;100.00;100991.63;5010099;28;51070;-51
2022/05/11 00:40:59;;;;;;;;;5.00;2.75;;;;;30.41;100.00;100983.69;5013079;28;51022;-50
2022/05/11 00:43:53;;;;;;;;;4.00;2.00;;;;;30.43;100.00;100990.78;4999627;28;51321;-48
2022/05/11 00:46:45;;;;;;;;;2.75;2.75;;;;;30.42;100.00;100989.03;5005190;28;51153;-47
2022/05/11 00:49:49;;;;;;;;;7.25;3.00;;;;;30.42;100.00;100975.31;5016545;28;51484;-49
2022/05/11 00:52:38;;;;;;;;;5.75;3.50;;;;;30.40;100.00;100974.56;5009533;28;51281;-49
2022/05/11 00:55:29;;;;;;;;;2.75;2.75;;;;;30.37;100.00;100971.22;5004437;28;51149;-49
2022/05/11 00:58:23;;;;;;;;;5.25;3.75;;;;;30.34;100.00;100961.38;5012528;28;51173;-47
2022/05/11 01:01:09;;;;;;;;;5.50;2.75;;;;;30.36;100.00;100964.84;5006025;28;51200;-48
2022/05/11 01:04:13;;;;;;;;;3.75;3.75;;;;;30.34;100.00;100957.72;5018834;28;51176;-47
2022/05/11 01:06:58;;;;;;;;;7.75;3.25;;;;;30.36;100.00;100956.63;5014575;28;51233;-48
2022/05/11 01:09:43;;;;;;;;;3.00;3.00;;;;;30.35;100.00;100951.25;5010073;28;51536;-48
2022/05/11 01:12:33;;;;;;;;;4.00;2.50;;;;;30.35;100.00;100945.75;5007991;28;51060;-52
2022/05/11 01:15:18;;;;;;;;;3.00;3.00;;;;;30.34;100.00;100950.38;5014654;28;51391;-49
2022/05/11 01:18:06;;;;;;;;;4.50;1.75;;;;;30.29;100.00;100937.06;5008825;28;51069;-49
2022/05/11 01:20:51;;;;;;;;;5.75;2.75;;;;;30.34;100.00;100944.00;5004478;28;51125;-50
2022/05/11 01:23:44;;;;;;;;;5.00;3.00;;;;;30.33;100.00;100948.63;4991240;28;51166;-51
2022/05/11 01:26:33;;;;;;;;;5.00;3.75;;;;;30.33;100.00;100945.91;5007979;28;51453;-47
2022/05/11 01:29:17;;;;;;;;;4.50;3.25;;;;;30.30;100.00;100940.66;5009806;28;51069;-48
2022/05/11 01:32:02;;;;;;;;;5.00;4.00;;;;;30.34;100.00;100947.63;5012697;28;51117;-48
2022/05/11 01:34:49;;;;;;;;;4.75;3.00;;;;;30.33;100.00;100948.63;5019444;28;51105;-50
2022/05/11 01:37:42;;;;;;;;;3.00;3.00;;;;;30.33;100.00;100955.97;5019489;28;51137;-50
2022/05/11 01:40:27;;;;;;;;;5.50;3.50;;;;;30.30;100.00;100947.03;4998185;28;51363;-48
2022/05/11 01:43:23;;;;;;;;;5.00;3.25;;;;;30.36;100.00;100959.38;5009797;28;50947;-50
2022/05/11 01:46:08;;;;;;;;;4.75;3.50;;;;;30.36;100.00;100953.88;4999784;28;51132;-49
2022/05/11 01:48:53;;;;;;;;;4.00;3.00;;;;;30.40;100.00;100958.09;5001546;28;51142;-49
2022/05/11 01:51:38;;;;;;;;;6.75;3.25;;;;;30.45;100.00;100953.09;5010659;28;51242;-49
2022/05/11 01:54:23;;;;;;;;;4.25;2.00;;;;;30.47;100.00;100947.47;5012301;28;51120;-48
2022/05/11 01:57:08;;;;;;;;;6.00;3.00;;;;;30.50;100.00;100951.81;5012391;28;51313;-50
2022/05/11 01:59:52;;;;;;;;;3.00;3.00;;;;;30.48;100.00;100949.22;5010813;28;51569;-49
2022/05/11 02:02:37;;;;;;;;;5.50;2.75;;;;;30.33;100.00;100923.94;5016362;28;51053;-50
2022/05/11 02:08:27;;;;;;;;;5.75;2.75;;;;;30.49;100.00;100958.31;5002739;28;51071;-50
2022/05/11 02:11:13;;;;;;;;;5.00;3.25;;;;;30.49;100.00;100963.78;5012860;28;51525;-50
2022/05/11 02:13:58;;;;;;;;;4.00;4.00;;;;;30.47;100.00;100960.34;5004409;28;51172;-49
2022/05/11 02:16:43;;;;;;;;;3.75;2.00;;;;;30.47;100.00;100960.34;5007601;28;51025;-47
2022/05/11 02:19:29;;;;;;;;;2.50;2.50;;;;;30.49;100.00;100961.06;5018874;28;51163;-48
2022/05/11 02:22:14;;;;;;;;;8.00;3.00;;;;;30.48;100.00;100956.59;5010869;28;51041;-50
2022/05/11 02:24:59;;;;;;;;;7.00;3.25;;;;;30.48;100.00;100967.56;5011562;28;51483;-49
2022/05/11 02:27:45;;;;;;;;;6.00;5.75;;;;;30.48;100.00;100964.81;5014554;28;51126;-49
2022/05/11 02:30:30;;;;;;;;;2.25;2.25;;;;;30.49;100.00;100969.28;5004575;28;51504;-50
2022/05/11 02:33:15;;;;;;;;;6.75;2.00;;;;;30.47;100.00;100952.09;5004644;28;51550;-49
2022/05/11 02:36:00;;;;;;;;;4.75;3.25;;;;;30.51;100.00;100954.44;5017528;28;51139;-47
2022/05/11 02:38:44;;;;;;;;;2.50;2.50;;;;;30.52;100.00;100955.31;5003845;28;51078;-49
2022/05/11 02:41:28;;;;;;;;;6.25;2.75;;;;;30.52;100.00;100950.69;5008952;28;51130;-49
2022/05/11 02:44:13;;;;;;;;;6.25;2.25;;;;;30.51;100.00;100959.94;5002004;28;51195;-50
2022/05/11 02:46:57;;;;;;;;;6.25;3.50;;;;;30.50;100.00;100962.78;5012689;28;51191;-49
2022/05/11 02:49:42;;;;;;;;;4.00;2.50;;;;;30.47;100.00;100961.19;5009455;28;51241;-51
2022/05/11 02:52:26;;;;;;;;;2.50;2.25;;;;;30.50;100.00;100954.56;5008740;28;51205;-48
2022/05/11 02:55:11;;;;;;;;;5.00;2.75;;;;;30.46;100.00;100953.94;5009530;28;51113;-48
2022/05/11 02:57:55;;;;;;;;;5.00;2.25;;;;;30.50;100.00;100963.69;5002947;28;51121;-50
2022/05/11 03:00:43;;;;;;;;;4.25;2.25;;;;;30.51;100.00;100956.31;5008167;28;51099;-48
2022/05/11 03:03:34;;;;;;;;;3.50;3.50;;;;;30.51;100.00;100959.06;5002022;28;51180;-49
2022/05/11 03:06:20;;;;;;;;;4.75;3.00;;;;;30.51;100.00;100951.69;5014128;28;51250;-52
2022/05/11 03:09:05;;;;;;;;;5.75;3.00;;;;;30.52;100.00;100967.19;4995112;28;51121;-51
2022/05/11 03:11:49;;;;;;;;;3.75;3.75;;;;;30.56;100.00;100968.66;5010052;28;51180;-49
2022/05/11 03:14:33;;;;;;;;;5.75;3.75;;;;;30.57;100.00;100969.56;5006401;28;51150;-49
2022/05/11 03:17:18;;;;;;;;;6.25;3.75;;;;;30.51;100.00;100970.91;5012572;28;51169;-54
2022/05/11 03:20:07;;;;;;;;;5.25;3.75;;;;;30.58;100.00;100976.81;5011042;28;51158;-49
2022/05/11 03:22:52;;;;;;;;;6.25;5.00;;;;;30.60;100.00;100983.00;5018639;28;51100;-52
2022/05/11 03:25:37;;;;;;;;;7.50;6.00;;;;;30.62;100.00;100980.16;5014501;28;51112;-50
2022/05/11 03:28:21;;;;;;;;;8.50;5.50;;;;;30.67;100.00;100991.59;5016043;28;51217;-49
2022/05/11 03:31:06;;;;;;;;;8.25;7.00;;;;;30.68;100.00;100987.84;5019427;28;51467;-48
2022/05/11 03:36:53;;;;;;;;;6.75;6.00;;;;;30.71;100.00;100982.09;5018968;28;51119;-48
2022/05/11 03:39:38;;;;;;;;;10.00;7.00;;;;;30.73;100.00;100982.84;5008236;28;51491;-47
2022/05/11 03:42:28;;;;;;;;;8.50;7.25;;;;;30.78;100.00;100993.44;5010828;28;51187;-49
2022/05/11 03:45:18;;;;;;;;;12.00;8.00;;;;;30.75;100.00;100994.56;5019954;28;51477;-50
2022/05/11 03:48:04;;;;;;;;;8.25;7.25;;;;;30.73;100.00;101000.19;5006534;28;51146;-49
2022/05/11 03:50:48;;;;;;;;;11.50;9.00;;;;;30.72;100.00;101008.56;5019757;28;51313;-51
2022/05/11 03:53:34;;;;;;;;;6.75;6.00;;;;;30.67;100.00;101008.09;5020918;28;51138;-51
2022/05/11 03:56:19;;;;;;;;;10.00;8.00;;;;;30.58;100.00;100999.63;5012568;28;51518;-48
2022/05/11 03:59:03;;;;;;;;;9.00;7.25;;;;;30.58;100.00;101015.25;5013785;28;51070;-49
2022/05/11 04:01:48;;;;;;;;;10.50;7.75;;;;;30.53;100.00;101009.25;5013542;28;51079;-50
2022/05/11 04:04:32;;;;;;;;;8.00;8.00;;;;;30.55;100.00;101010.88;5005438;28;51368;-50
2022/05/11 04:07:17;;;;;;;;;11.75;10.25;;;;;30.54;100.00;101008.25;5009534;28;51101;-51
2022/05/11 04:10:02;;;;;;;;;13.50;8.50;;;;;30.50;100.00;101012.22;5002017;28;51200;-49
2022/05/11 04:12:47;;;;;;;;;11.00;8.00;;;;;30.54;100.00;101019.25;5002174;28;50992;-48
2022/05/11 04:15:31;;;;;;;;;9.00;8.00;;;;;30.54;100.00;101024.72;5005747;28;51059;-49
2022/05/11 04:18:16;;;;;;;;;8.50;6.25;;;;;30.55;100.00;101021.84;5018802;28;51227;-50
2022/05/11 04:21:01;;;;;;;;;1.75;0.00;;;;;30.52;100.00;101019.34;5014820;28;51348;-51
2022/05/11 04:23:45;;;;;;;;;7.00;6.50;;;;;30.57;100.00;101035.47;5012787;28;51131;-47
2022/05/11 04:26:32;;;;;;;;;5.50;5.00;;;;;30.56;100.00;101033.72;5012427;28;51251;-48
2022/05/11 04:29:17;;;;;;;;;8.25;7.00;;;;;30.51;100.00;101034.06;5020810;28;51357;-47
2022/05/11 04:32:01;;;;;;;;;7.50;5.50;;;;;30.55;100.00;101041.06;5001945;28;51090;-48
2022/05/11 04:34:46;;;;;;;;;6.75;6.00;;;;;30.57;100.00;101040.97;5006481;28;51173;-49
2022/05/11 04:37:31;;;;;;;;;9.75;7.00;;;;;30.57;100.00;101046.44;5012384;28;51244;-49
2022/05/11 04:40:15;;;;;;;;;15.50;12.50;;;;;30.55;100.00;101041.06;5004481;28;51180;-50
2022/05/11 04:43:10;;;;;;;;;15.75;11.50;;;;;30.58;100.00;101045.44;5012490;28;51134;-49
2022/05/11 04:45:56;;;;;;;;;9.25;6.75;;;;;30.58;100.00;101046.31;5014258;28;51083;-51
2022/05/11 04:48:44;;;;;;;;;12.25;10.50;;;;;30.57;100.00;101044.56;5010159;28;51297;-49
2022/05/11 04:51:28;;;;;;;;;12.75;12.25;;;;;30.60;100.00;101055.28;5018507;28;51066;-50
2022/05/11 04:54:13;;;;;;;;;18.75;13.75;;;;;30.57;100.00;101051.94;5008002;28;51112;-50
2022/05/11 04:56:57;;;;;;;;;17.75;16.00;;;;;30.60;100.00;101051.66;5016421;28;51225;-49
2022/05/11 04:59:42;;;;;;;;;21.25;16.50;;;;;30.56;100.00;101053.78;5001330;28;51327;-50
2022/05/11 05:02:29;;;;;;;;;20.75;20.00;;;;;30.58;100.00;101054.53;5014702;28;51175;-49
2022/05/11 05:05:15;;;;;;;;;24.75;22.25;;;;;30.51;100.00;101053.28;5010809;28;51461;-48
2022/05/11 05:07:59;;;;;;;;;26.25;22.25;;;;;30.57;100.00;101062.94;5007675;28;51163;-51
2022/05/11 05:10:44;;;;;;;;;28.25;25.50;;;;;30.58;100.00;101065.53;5006749;28;51539;-48
2022/05/11 05:13:29;;;;;;;;;29.50;25.75;;;;;30.58;100.00;101065.53;5013490;28;51113;-47
2022/05/11 05:16:13;;;;;;;;;28.50;26.75;;;;;30.63;100.00;101070.63;5010645;28;51051;-48
2022/05/11 05:18:58;;;;;;;;;34.00;27.25;;;;;30.65;100.00;101076.00;5014217;28;51409;-53
2022/05/11 05:21:42;;;;;;;;;32.50;27.75;;;;;30.63;100.00;101072.53;5006810;28;51253;-50
2022/05/11 05:24:26;;;;;;;;;44.00;34.75;;;;;30.65;100.00;101085.13;5016400;28;51284;-49
2022/05/11 05:27:15;;;;;;;;;112.50;102.25;;;;;30.67;100.00;101088.63;5001620;28;51130;-50
2022/05/11 05:33:04;;;;;;;;;58.25;46.50;;;;;30.67;100.00;101090.47;5007912;28;51106;-47
2022/05/11 05:35:48;;;;;;;;;74.75;62.25;;;;;30.64;100.00;101077.88;5009436;28;51074;-51
2022/05/11 05:38:34;;;;;;;;;72.25;56.75;;;;;30.62;100.00;101085.38;5004949;28;51320;-48
2022/05/11 05:41:19;;;;;;;;;64.75;48.25;;;;;30.62;100.00;101088.09;5013757;28;50983;-50
2022/05/11 05:44:06;;;;;;;;;68.50;54.75;;;;;30.64;100.00;101088.84;5002862;28;51165;-47
2022/05/11 05:46:51;;;;;;;;;66.00;50.25;;;;;30.68;100.00;101101.34;5015636;28;51142;-49
2022/05/11 05:49:35;;;;;;;;;67.50;52.25;;;;;30.72;100.00;101104.72;5016304;28;51274;-49
2022/05/11 05:52:22;;;;;;;;;53.25;41.00;;;;;30.78;100.00;101108.81;5007886;28;51100;-50
2022/05/11 05:55:07;;;;;;;;;58.25;42.75;;;;;30.82;100.00;101096.56;5009818;28;51441;-51
2022/05/11 05:57:51;;;;;;;;;52.75;39.25;;;;;30.94;100.00;101113.88;5016556;28;51209;-48
2022/05/11 06:00:36;;;;;;;;;43.00;35.75;;;;;31.07;100.00;101112.72;5012567;28;51667;-50
2022/05/11 06:03:22;;;;;;;;;46.00;35.00;;;;;31.26;100.00;101126.81;5018791;28;51128;-50
2022/05/11 06:06:09;;;;;;;;;45.75;38.75;;;;;31.51;100.00;101131.06;5014410;28;51121;-50
2022/05/11 06:08:54;;;;;;;;;51.25;40.50;;;;;31.89;100.00;101140.59;4999074;28;51505;-51
2022/05/11 06:11:38;;;;;;;;;47.75;39.00;;;;;32.30;100.00;101141.56;5008779;28;51092;-48
2022/05/11 06:14:23;;;;;;;;;50.25;36.00;;;;;32.51;100.00;101129.63;5006217;28;51663;-50
2022/05/11 06:17:19;;;;;;;;;45.00;35.75;;;;;32.73;100.00;101155.19;5010586;28;51053;-52
2022/05/11 06:20:04;;;;;;;;;42.50;33.50;;;;;32.89;100.00;101146.41;5015483;28;51228;-49
2022/05/11 06:22:50;;;;;;;;;43.75;32.00;;;;;32.98;100.00;101151.06;5014772;28;51122;-54
2022/05/11 06:25:37;;;;;;;;;48.25;36.25;;;;;32.96;100.00;101146.72;5001108;28;51674;-51
2022/05/11 06:28:21;;;;;;;;;39.50;32.00;;;;;32.86;100.00;101158.59;5009962;28;51217;-56
2022/05/11 06:31:06;;;;;;;;;34.50;30.25;;;;;32.73;100.00;101163.47;5012105;28;51193;-54
2022/05/11 06:33:53;;;;;;;;;39.50;29.50;;;;;32.65;100.00;101160.53;5012035;28;51580;-54
2022/05/11 06:36:38;;;;;;;;;39.75;31.75;;;;;32.64;100.00;101165.19;4998865;28;51204;-55
2022/05/11 06:39:23;;;;;;;;;48.75;38.75;;;;;32.94;100.00;101160.66;5014948;28;51173;-54
2022/05/11 06:42:09;;;;;;;;;47.50;38.75;;;;;33.53;100.00;101172.66;5015412;28;51101;-54
2022/05/11 06:44:53;;;;;;;;;43.00;34.00;;;;;34.09;100.00;101183.91;5011088;28;51121;-55
2022/05/11 06:47:38;;;;;;;;;61.25;48.50;;;;;34.41;100.00;101190.94;5013846;28;51181;-53
2022/05/11 06:50:24;;;;;;;;;46.00;37.00;;;;;34.78;100.00;101194.72;5012807;28;51591;-54
2022/05/11 06:53:14;;;;;;;;;39.50;31.75;;;;;35.16;100.00;101203.84;5011717;28;51256;-54
2022/05/11 06:59:20;;;;;;;;;30.25;25.25;;;;;36.27;100.00;101210.00;5010489;28;51117;-53
2022/05/11 07:02:06;;;;;;;;;85.25;68.25;;;;;36.96;100.00;101212.84;5012287;28;51144;-56
2022/05/11 07:04:51;;;;;;;;;32.00;29.00;;;;;37.54;100.00;101214.91;5005686;28;51113;-56
2022/05/11 07:07:35;;;;;;;;;42.00;34.50;;;;;38.14;100.00;101227.59;5017808;28;51222;-58
2022/05/11 07:10:20;;;;;;;;;27.00;20.00;;;;;38.85;100.00;101229.66;5017449;28;51117;-52
2022/05/11 07:13:05;;;;;;;;;22.25;19.75;;;;;39.60;100.00;101238.47;5014795;28;51086;-53
2022/05/11 07:15:50;;;;;;;;;25.00;21.50;;;;;40.31;100.00;101229.88;5012832;28;51515;-56
2022/05/11 07:18:35;;;;;;;;;24.75;20.00;;;;;41.05;100.00;101237.38;5014184;28;51473;-56
2022/05/11 07:21:19;;;;;;;;;27.25;23.00;;;;;41.76;100.00;101238.59;5012368;28;51160;-56
2022/05/11 07:24:04;;;;;;;;;24.00;20.00;;;;;42.33;100.00;101249.88;5007204;28;51150;-55
2022/05/11 07:26:49;;;;;;;;;26.50;21.25;;;;;42.88;98.36;101236.00;5012858;28;51898;-54
2022/05/11 07:29:34;;;;;;;;;20.25;19.00;;;;;43.65;96.24;101255.41;5009634;28;51047;-51
2022/05/11 07:32:18;;;;;;;;;23.00;20.00;;;;;44.22;93.61;101254.16;5016498;28;51276;-54
2022/05/11 07:35:03;;;;;;;;;18.75;17.00;;;;;44.61;91.25;101271.16;5016669;28;51343;-52
2022/05/11 07:37:48;;;;;;;;;22.50;19.75;;;;;44.67;90.25;101271.13;5015395;28;51194;-55
2022/05/11 07:40:33;;;;;;;;;21.75;20.25;;;;;44.19;89.36;101260.19;5007361;28;51146;-58
2022/05/11 07:43:18;;;;;;;;;24.75;22.00;;;;;44.24;89.22;101263.22;4997133;28;51121;-54
2022/05/11 07:46:03;;;;;;;;;24.00;18.75;;;;;44.73;87.56;101278.66;5010544;28;51133;-56
2022/05/11 07:48:48;;;;;;;;;22.75;18.25;;;;;44.88;85.99;101277.56;5004705;28;51201;-57
2022/05/11 07:51:35;;;;;;;;;21.25;19.50;;;;;44.01;86.02;101280.50;5002132;28;51232;-53
2022/05/11 07:54:20;;;;;;;;;21.50;19.75;;;;;42.94;87.18;101270.69;5018961;28;51124;-53
2022/05/11 08:00:09;;;;;;;;;20.25;19.00;;;;;41.13;90.54;101277.38;5007128;28;51165;-55
2022/05/11 08:02:54;;;;;;;;;16.25;11.75;;;;;40.56;91.04;101300.16;5013282;28;51186;-54
2022/05/11 08:05:38;;;;;;;;;15.25;11.50;;;;;39.75;91.92;101288.69;5010270;28;51513;-55
2022/05/11 08:08:24;;;;;;;;;6.50;5.50;;;;;39.26;93.13;101285.16;5018743;28;51279;-55
2022/05/11 08:11:09;;;;;;;;;4.50;3.25;;;;;38.93;94.26;101288.06;5019991;28;51447;-55
2022/05/11 08:13:54;;;;;;;;;6.50;3.50;;;;;38.53;95.43;101284.31;5017366;28;51552;-54
2022/05/11 08:16:38;;;;;;;;;10.75;6.25;;;;;38.29;95.87;101283.31;5013606;28;51205;-55
2022/05/11 08:19:25;;;;;;;;;13.75;10.25;;;;;38.12;97.24;101279.69;5007494;28;51193;-53
2022/05/11 08:22:09;;;;;;;;;7.50;7.00;;;;;37.91;97.18;101269.06;5011498;28;51160;-56
2022/05/11 08:24:56;;;;;;;;;11.00;9.00;;;;;37.73;97.51;101283.13;5000661;28;51416;-53
2022/05/11 08:27:41;;;;;;;;;8.00;6.75;;;;;37.50;98.45;101275.44;5008501;28;51163;-52
2022/05/11 08:33:38;;;;;;;;;10.25;8.75;;;;;37.16;99.65;101285.53;5020008;28;51168;-55
2022/05/11 08:36:24;;;;;;;;;10.75;9.25;;;;;36.97;100.00;101286.69;5019640;28;51220;-58
2022/05/11 08:39:09;;;;;;;;;11.00;7.50;;;;;36.95;100.00;101285.97;5011835;28;51326;-54
2022/05/11 08:41:53;;;;;;;;;8.00;7.00;;;;;36.90;100.00;101292.03;5011115;28;52291;-51
2022/05/11 08:44:52;;;;;;;;;9.75;8.00;;;;;36.90;100.00;101280.94;5000665;28;51253;-54
2022/05/11 08:47:43;;;;;;;;;10.50;9.50;;;;;36.95;100.00;101277.66;5017413;28;51158;-54
2022/05/11 08:50:28;;;;;;;;;5.50;4.50;;;;;36.99;100.00;101273.50;5018536;28;51259;-52
2022/05/11 08:53:19;;;;;;;;;5.50;5.50;;;;;36.97;100.00;101271.94;5019466;28;51209;-52
2022/05/11 08:56:16;;;;;;;;;5.50;4.75;;;;;36.93;100.00;101276.97;5011787;28;51223;-55
2022/05/11 08:59:00;;;;;;;;;7.25;6.75;;;;;36.90;100.00;101275.41;5011994;28;51176;-54
2022/05/11 09:02:01;;;;;;;;;8.75;6.50;;;;;37.04;100.00;101278.56;5020167;28;51051;-53
2022/05/11 09:04:52;;;;;;;;;10.00;8.75;;;;;37.05;100.00;101277.50;4992435;28;51144;-56
2022/05/11 09:07:39;;;;;;;;;43.00;33.50;;;;;37.21;100.00;101288.69;5006692;28;51182;-53
2022/05/11 09:10:34;;;;;;;;;22.25;18.75;;;;;37.29;100.00;101279.53;5004140;28;51283;-55
2022/05/11 09:13:20;;;;;;;;;10.50;7.50;;;;;37.35;100.00;101280.75;5013878;28;51251;-57
2022/05/11 09:16:06;;;;;;;;;6.50;6.25;;;;;37.46;100.00;101272.13;5006977;28;51197;-57
2022/05/11 09:18:50;;;;;;;;;9.75;6.75;;;;;37.60;100.00;101280.81;5008835;28;51171;-54
2022/05/11 09:21:38;;;;;;;;;21.75;17.75;;;;;37.80;99.82;101265.56;5004530;28;51153;-52
2022/05/11 09:24:27;;;;;;;;;45.00;34.50;;;;;37.98;99.55;101271.00;5010242;28;51225;-55
2022/05/11 09:27:28;;;;;;;;;12.25;9.00;;;;;37.90;99.09;101253.44;5007746;28;51109;-53
2022/05/11 09:30:30;;;;;;;;;10.00;8.00;;;;;37.97;99.84;101274.81;5015270;28;51461;-53
2022/05/11 09:33:18;;;;;;;;;11.25;7.50;;;;;37.91;99.52;101275.53;5010935;28;51369;-52
2022/05/11 09:36:03;;;;;;;;;9.75;9.25;;;;;37.82;99.78;101271.81;5007641;28;51262;-54
2022/05/11 09:38:48;;;;;;;;;19.50;16.00;;;;;37.88;99.80;101288.88;5005884;28;51395;-56
2022/05/11 09:41:33;;;;;;;;;18.75;12.00;;;;;37.92;99.63;101279.16;5008459;28;51501;-55
2022/05/11 09:44:23;;;;;;;;;9.25;7.25;;;;;37.80;98.61;101284.16;5010962;28;51257;-51
2022/05/11 09:47:35;;;;;;;;;4.50;4.00;;;;;37.72;99.46;101289.72;5013576;28;51130;-51
2022/05/11 09:50:22;;;;;;;;;7.00;6.50;;;;;37.74;99.31;101279.28;5006113;28;51195;-57
2022/05/11 09:53:37;;;;;;;;;5.50;3.50;;;;;37.54;100.00;101282.38;5019104;28;51223;-54
2022/05/11 09:56:30;;;;;;;;;8.50;4.50;;;;;37.39;99.64;101276.63;4984313;28;51513;-55
2022/05/11 09:59:29;;;;;;;;;5.75;4.25;;;;;37.46;99.79;101276.81;4998138;28;51172;-55
2022/05/11 10:02:36;;;;;;;;;5.50;4.50;;;;;37.47;99.48;101279.41;4998854;28;51166;-54
2022/05/11 10:05:29;;;;;;;;;9.00;6.50;;;;;37.35;99.84;101269.66;4998421;28;51942;-54
2022/05/11 10:08:30;;;;;;;;;7.50;4.00;;;;;37.23;100.00;101280.19;5012692;28;51163;-55
2022/05/11 10:11:22;;;;;;;;;5.00;4.75;;;;;37.09;100.00;101284.47;4999112;28;51171;-52
2022/05/11 10:24:14;;;;;;;;;5.50;3.50;;;;;36.79;100.00;101278.44;4997546;28;52176;-53
2022/05/11 10:27:15;;;;;;;;;5.25;4.50;;;;;36.72;100.00;101282.91;5013556;28;52079;-54
2022/05/11 10:30:21;;;;;;;;;3.25;3.00;;;;;36.81;100.00;101279.13;5006890;28;51216;-54
2022/05/11 10:33:29;;;;;;;;;4.25;4.00;;;;;36.90;100.00;101274.47;4994492;28;51236;-55
2022/05/11 10:36:43;;;;;;;;;7.25;4.75;;;;;36.93;100.00;101284.44;5016727;28;51405;-57
2022/05/11 10:39:35;;;;;;;;;4.00;4.00;;;;;36.94;100.00;101273.16;5000664;28;51187;-55
2022/05/11 10:42:35;;;;;;;;;3.50;2.50;;;;;36.98;100.00;101279.22;5014866;28;51476;-53
2022/05/11 10:45:21;;;;;;;;;4.25;4.25;;;;;37.04;100.00;101273.88;5014633;28;51165;-56
2022/05/11 10:48:31;;;;;;;;;8.75;8.50;;;;;37.09;100.00;101272.53;5006138;28;51197;-53
2022/05/11 10:51:41;;;;;;;;;3.75;3.25;;;;;37.28;100.00;101269.47;5010592;28;51190;-53
2022/05/11 10:54:35;;;;;;;;;6.00;4.75;;;;;37.37;100.00;101264.78;5022195;28;51133;-55
2022/05/11 10:57:45;;;;;;;;;7.50;4.00;;;;;37.40;100.00;101263.63;5011845;28;51203;-58
2022/05/11 11:00:38;;;;;;;;;4.00;3.25;;;;;37.42;100.00;101267.97;4985743;28;51234;-54
2022/05/11 11:03:35;;;;;;;;;8.25;6.50;;;;;37.47;100.00;101264.69;5014869;28;51365;-54
2022/05/11 11:10:03;;;;;;;;;8.25;4.25;;;;;37.39;100.00;101247.97;5015852;28;51401;-50
2022/05/11 11:13:08;;;;;;;;;5.75;3.50;;;;;37.39;100.00;101254.41;5010328;28;51209;-53
2022/05/11 11:15:53;;;;;;;;;5.00;4.00;;;;;37.36;100.00;101246.38;5004278;28;51185;-55
2022/05/11 11:18:43;;;;;;;;;8.75;4.50;;;;;37.41;100.00;101244.03;5014913;28;51158;-53
2022/05/11 11:21:28;;;;;;;;;4.50;3.00;;;;;37.40;100.00;101236.72;5000291;28;51212;-54
2022/05/11 11:24:22;;;;;;;;;5.75;4.00;;;;;37.32;100.00;101226.44;5017752;28;51173;-55
2022/05/11 11:27:08;;;;;;;;;5.25;5.25;;;;;37.14;100.00;101226.59;5012154;28;51232;-54
2022/05/11 11:30:16;;;;;;;;;5.00;4.75;;;;;36.94;100.00;101222.34;5015354;28;51452;-51
2022/05/11 11:33:16;;;;;;;;;9.75;7.25;;;;;36.84;100.00;101226.09;5021213;28;51389;-52
2022/05/11 11:36:18;;;;;;;;;10.00;9.25;;;;;36.79;100.00;101228.53;5021902;28;51857;-52
2022/05/11 11:39:14;;;;;;;;;8.25;8.00;;;;;36.70;100.00;101216.50;5021189;28;51187;-52
2022/05/11 11:42:05;;;;;;;;;9.75;5.25;;;;;36.67;100.00;101213.22;5005259;28;51192;-55
2022/05/11 11:44:49;;;;;;;;;4.50;4.50;;;;;36.56;100.00;101203.31;5021561;28;51323;-55
2022/05/11 11:47:37;;;;;;;;;7.00;4.00;;;;;36.44;100.00;101195.28;5020840;28;51426;-53
2022/05/11 11:50:51;;;;;;;;;5.00;4.25;;;;;36.32;100.00;101195.66;5021107;28;51264;-55
2022/05/11 11:53:50;;;;;;;;;9.50;5.75;;;;;36.14;100.00;101191.06;5020969;28;51138;-55
2022/05/11 11:56:37;;;;;;;;;9.25;6.00;;;;;35.96;100.00;101186.47;5021403;28;51388;-53
2022/05/11 11:59:24;;;;;;;;;6.00;4.00;;;;;35.81;100.00;101176.97;5020600;28;51090;-55
2022/05/11 12:02:15;;;;;;;;;6.75;4.00;;;;;35.71;100.00;101173.41;5021461;28;51093;-50
2022/05/11 12:05:12;;;;;;;;;6.00;6.00;;;;;35.56;100.00;101162.91;5020620;28;51159;-56
2022/05/11 12:17:42;;;;;;;;;5.00;3.00;;;;;34.89;100.00;101136.44;5020071;28;51119;-57
2022/05/11 12:20:41;;;;;;;;;6.00;5.75;;;;;34.94;100.00;101132.41;5021173;28;51546;-55
2022/05/11 12:23:34;;;;;;;;;3.50;3.25;;;;;34.87;100.00;101130.19;5020213;28;51424;-50
2022/05/11 12:26:32;;;;;;;;;5.00;4.75;;;;;34.92;100.00;101127.03;5021093;28;51324;-53
2022/05/11 12:32:23;;;;;;;;;5.75;3.75;;;;;35.16;100.00;101112.56;5021081;28;51096;-52
2022/05/11 12:35:18;;;;;;;;;3.00;3.00;;;;;35.08;100.00;101111.63;5020302;28;51142;-55
2022/05/11 12:38:05;;;;;;;;;7.25;4.00;;;;;34.94;100.00;101102.84;5019981;28;51087;-54
2022/05/11 12:40:51;;;;;;;;;2.00;2.00;;;;;34.79;100.00;101108.00;5020993;28;51473;-52
2022/05/11 12:43:40;;;;;;;;;4.50;3.25;;;;;34.67;100.00;101090.78;5004423;28;51082;-57
2022/05/11 12:46:25;;;;;;;;;4.75;3.75;;;;;34.57;100.00;101095.50;5018888;28;51191;-56
2022/05/11 12:49:14;;;;;;;;;6.00;2.75;;;;;34.45;100.00;101084.66;5018402;28;51231;-53
2022/05/11 12:52:05;;;;;;;;;4.50;4.00;;;;;34.37;100.00;101076.25;5020004;28;51076;-52
2022/05/11 12:55:01;;;;;;;;;5.25;2.50;;;;;34.22;100.00;101070.38;5019684;28;51204;-58
2022/05/11 12:57:46;;;;;;;;;6.75;5.00;;;;;34.08;100.00;101063.44;5019544;28;51082;-52
2022/05/11 13:00:33;;;;;;;;;8.00;4.75;;;;;34.10;100.00;101064.16;5020328;28;51231;-53
2022/05/11 13:03:27;;;;;;;;;9.00;5.00;;;;;34.12;100.00;101059.38;5020085;28;51057;-56
2022/05/11 13:06:49;;;;;;;;;10.00;4.75;;;;;34.13;100.00;101058.34;5019420;28;51189;-56
2022/05/11 13:09:42;;;;;;;;;9.50;5.00;;;;;34.18;100.00;101054.25;5018957;28;51203;-55
2022/05/11 13:12:27;;;;;;;;;6.50;5.25;;;;;34.21;100.00;101053.94;5005233;28;51327;-55
2022/05/11 13:15:11;;;;;;;;;8.25;4.25;;;;;34.19;100.00;101053.22;5019294;28;51074;-57
2022/05/11 13:17:55;;;;;;;;;7.25;4.25;;;;;34.10;100.00;101030.19;5003745;28;51072;-56
2022/05/11 13:20:42;;;;;;;;;4.25;4.25;;;;;34.15;100.00;101044.38;5019703;28;51074;-54
2022/05/11 13:24:00;;;;;;;;;5.00;4.00;;;;;34.08;100.00;101033.06;5018264;28;51168;-51
2022/05/11 13:26:47;;;;;;;;;7.75;5.00;;;;;34.07;100.00;101027.72;5010282;28;51269;-50
2022/05/11 13:29:31;;;;;;;;;3.25;2.75;;;;;34.11;100.00;101030.00;5018822;28;51108;-55
2022/05/11 13:32:24;;;;;;;;;7.00;4.50;;;;;34.08;100.00;101016.50;5018286;28;51410;-55
2022/05/11 13:35:38;;;;;;;;;5.75;4.00;;;;;33.96;100.00;101015.84;5019387;28;51173;-56